Observation data for Silverton on 01/09/2018      Previous  Date  Next       Current Mesonet Observations  Soil Data  Daily Summary Page  Observations in Plain Language
KSVS 090600Z 20010KT 08/M03 A301 RMK A01 T00821032  RH  045%=      5-min Rain = 0
KSVS 090605Z 20010KT 08/M03 A301 RMK A01 T00821032  RH  045%=      5-min Rain = 0
KSVS 090610Z 20010KT 08/M03 A301 RMK A01 T00821032  RH  045%=      5-min Rain = 0
KSVS 090615Z 20011KT 08/M03 A3009 RMK A01 T00831032  RH  045%=      5-min Rain = 0
KSVS 090620Z 20011KT 09/M03 A3009 RMK A01 T00851033  RH  044%=      5-min Rain = 0
KSVS 090625Z 20012KT 09/M03 A3009 RMK A01 T00861033  RH  043%=      5-min Rain = 0
KSVS 090630Z 20011KT 08/M03 A3009 RMK A01 T00831034  RH  044%=      5-min Rain = 0
KSVS 090635Z 20010KT 08/M03 A3009 RMK A01 T00821034  RH  044%=      5-min Rain = 0
KSVS 090640Z 20010KT 08/M03 A3009 RMK A01 T00801034  RH  045%=      5-min Rain = 0
KSVS 090645Z 20009KT 08/M03 A3009 RMK A01 T00791034  RH  045%=      5-min Rain = 0
KSVS 090650Z 20009KT 08/M04 A3009 RMK A01 T00751035  RH  046%=      5-min Rain = 0
KSVS 090655Z 21010KT 08/M03 A3008 RMK A01 T00751034  RH  046%=      5-min Rain = 0
KSVS 090700Z 20010KT 08/M03 A3008 RMK A01 T00761034  RH  046%=      5-min Rain = 0
KSVS 090705Z 20009KT 08/M03 A3008 RMK A01 T00761034  RH  046%=      5-min Rain = 0
KSVS 090710Z 20009KT 08/M03 A3007 RMK A01 T00761034  RH  046%=      5-min Rain = 0
KSVS 090715Z 20009KT 08/M04 A3007 RMK A01 T00771035  RH  046%=      5-min Rain = 0
KSVS 090720Z 20009KT 08/M04 A3007 RMK A01 T00751035  RH  046%=      5-min Rain = 0
KSVS 090725Z 19009KT 08/M04 A3006 RMK A01 T00751035  RH  046%=      5-min Rain = 0
KSVS 090730Z 19009KT 07/M04 A3006 RMK A01 T00741035  RH  046%=      5-min Rain = 0
KSVS 090735Z 19008KT 07/M04 A3006 RMK A01 T00731035  RH  047%=      5-min Rain = 0
KSVS 090740Z 19008KT 07/M04 A3006 RMK A01 T00721035  RH  047%=      5-min Rain = 0
KSVS 090745Z 19009KT 07/M04 A3005 RMK A01 T00721035  RH  047%=      5-min Rain = 0
KSVS 090750Z 19009KT 07/M04 A3005 RMK A01 T00721035  RH  047%=      5-min Rain = 0
KSVS 090755Z 19009KT 07/M03 A3005 RMK A01 T00741034  RH  047%=      5-min Rain = 0
KSVS 090800Z 19010KT 08/M03 A3005 RMK A01 T00791033  RH  046%=      5-min Rain = 0
KSVS 090805Z 19010KT 08/M03 A3005 RMK A01 T00831033  RH  045%=      5-min Rain = 0
KSVS 090810Z 19011KT 09/M03 A3005 RMK A01 T00851032  RH  044%=      5-min Rain = 0
KSVS 090815Z 20010KT 09/M03 A3005 RMK A01 T00861032  RH  044%=      5-min Rain = 0
KSVS 090820Z 20009KT 09/M03 A3005 RMK A01 T00871031  RH  044%=      5-min Rain = 0
KSVS 090825Z 21009KT 09/M03 A3005 RMK A01 T00891032  RH  043%=      5-min Rain = 0
KSVS 090830Z 21009KT 09/M03 A3005 RMK A01 T00891032  RH  043%=      5-min Rain = 0
KSVS 090835Z 21009KT 09/M03 A3005 RMK A01 T00881033  RH  043%=      5-min Rain = 0
KSVS 090840Z 21010KT 09/M03 A3005 RMK A01 T00891033  RH  043%=      5-min Rain = 0
KSVS 090845Z 22011KT 09/M03 A3005 RMK A01 T00901033  RH  042%=      5-min Rain = 0
KSVS 090850Z 22012G17KT 09/M03 A3005 RMK A01 T00901033  RH  042%=      5-min Rain = 0
KSVS 090855Z 22013KT 09/M03 A3005 RMK A01 T00911034  RH  042%=      5-min Rain = 0
KSVS 090900Z 22013G18KT 09/M03 A3005 RMK A01 T00911034  RH  042%=      5-min Rain = 0
KSVS 090905Z 22013KT 09/M03 A3004 RMK A01 T00901034  RH  042%=      5-min Rain = 0
KSVS 090910Z 22013G18KT 09/M04 A3004 RMK A01 T00881035  RH  042%=      5-min Rain = 0
KSVS 090915Z 22013KT 09/M04 A3004 RMK A01 T00851036  RH  043%=      5-min Rain = 0
KSVS 090920Z 22011KT 08/M04 A3003 RMK A01 T00801037  RH  044%=      5-min Rain = 0
KSVS 090925Z 22010KT 07/M04 A3003 RMK A01 T00741038  RH  046%=      5-min Rain = 0
KSVS 090930Z 22010KT 07/M04 A3003 RMK A01 T00691038  RH  047%=      5-min Rain = 0
KSVS 090935Z 22010KT 07/M04 A3003 RMK A01 T00661038  RH  048%=      5-min Rain = 0
KSVS 090940Z 21010KT 06/M04 A3003 RMK A01 T00631039  RH  049%=      5-min Rain = 0
KSVS 090945Z 21010KT 06/M04 A3003 RMK A01 T00591040  RH  050%=      5-min Rain = 0
KSVS 090950Z 21010KT 06/M04 A3002 RMK A01 T00561040  RH  051%=      5-min Rain = 0
KSVS 090955Z 21010KT 05/M04 A3003 RMK A01 T00531040  RH  051%=      5-min Rain = 0
KSVS 091000Z 22010KT 05/M04 A3003 RMK A01 T00501041  RH  052%=      5-min Rain = 0
KSVS 091005Z 22009KT 05/M04 A3003 RMK A01 T00491041  RH  053%=      5-min Rain = 0
KSVS 091010Z 22009KT 05/M04 A3003 RMK A01 T00471040  RH  054%=      5-min Rain = 0
KSVS 091015Z 22009KT 05/M04 A3003 RMK A01 T00461040  RH  054%=      5-min Rain = 0
KSVS 091020Z 22010KT 05/M04 A3003 RMK A01 T00491038  RH  054%=      5-min Rain = 0
KSVS 091025Z 22009KT 05/M04 A3003 RMK A01 T00511038  RH  053%=      5-min Rain = 0
KSVS 091030Z 22010KT 05/M04 A3003 RMK A01 T00481039  RH  054%=      5-min Rain = 0
KSVS 091035Z 23012KT 05/M04 A3002 RMK A01 T00511037  RH  054%=      5-min Rain = 0
KSVS 091040Z 23012KT 05/M04 A3002 RMK A01 T00541036  RH  053%=      5-min Rain = 0
KSVS 091045Z 22011KT 06/M04 A3002 RMK A01 T00571036  RH  052%=      5-min Rain = 0
KSVS 091050Z 22010KT 06/M04 A3002 RMK A01 T00571037  RH  051%=      5-min Rain = 0
KSVS 091055Z 22010KT 06/M04 A3002 RMK A01 T00551037  RH  052%=      5-min Rain = 0
KSVS 091100Z 22010KT 06/M04 A3001 RMK A01 T00551037  RH  052%=      5-min Rain = 0
KSVS 091105Z 22011KT 06/M04 A3001 RMK A01 T00571036  RH  052%=      5-min Rain = 0
KSVS 091110Z 22012KT 06/M04 A3001 RMK A01 T00621035  RH  050%=      5-min Rain = 0
KSVS 091115Z 22012KT 06/M04 A3001 RMK A01 T00631035  RH  050%=      5-min Rain = 0
KSVS 091120Z 23013KT 06/M04 A3001 RMK A01 T00621036  RH  050%=      5-min Rain = 0
KSVS 091125Z 22012KT 06/M04 A3001 RMK A01 T00611036  RH  050%=      5-min Rain = 0
KSVS 091130Z 22012KT 06/M04 A3001 RMK A01 T00631036  RH  050%=      5-min Rain = 0
KSVS 091135Z 22012KT 06/M04 A3001 RMK A01 T00621037  RH  050%=      5-min Rain = 0
KSVS 091140Z 22010KT 06/M04 A3001 RMK A01 T00591037  RH  051%=      5-min Rain = 0
KSVS 091145Z 22009KT 06/M04 A3001 RMK A01 T00561038  RH  051%=      5-min Rain = 0
KSVS 091150Z 22009KT 06/M04 A3001 RMK A01 T00551038  RH  052%=      5-min Rain = 0
KSVS 091155Z 22008KT 05/M04 A3001 RMK A01 T00531038  RH  052%=      5-min Rain = 0
KSVS 091200Z 23008KT 05/M04 A3001 RMK A01 T00531038  RH  052%=      5-min Rain = 0
KSVS 091205Z 23008KT 05/M04 A3001 RMK A01 T00521038  RH  053%=      5-min Rain = 0
KSVS 091210Z 23009KT 05/M04 A30 RMK A01 T00541037  RH  052%=      5-min Rain = 0
KSVS 091215Z 22010KT 06/M04 A30 RMK A01 T00571036  RH  052%=      5-min Rain = 0
KSVS 091220Z 22012KT 06/M04 A30 RMK A01 T00611036  RH  051%=      5-min Rain = 0
KSVS 091225Z 22013KT 06/M04 A30 RMK A01 T00611036  RH  050%=      5-min Rain = 0
KSVS 091230Z 23011KT 06/M04 A3001 RMK A01 T00591037  RH  051%=      5-min Rain = 0
KSVS 091235Z 23012KT 06/M04 A3001 RMK A01 T00551038  RH  052%=      5-min Rain = 0
KSVS 091240Z 23013KT 05/M04 A3001 RMK A01 T00531039  RH  052%=      5-min Rain = 0
KSVS 091245Z 23012KT 05/M04 A3001 RMK A01 T00501039  RH  053%=      5-min Rain = 0
KSVS 091250Z 22012G17KT 05/M04 A3001 RMK A01 T00501039  RH  053%=      5-min Rain = 0
KSVS 091255Z 22012KT 05/M04 A30 RMK A01 T00491039  RH  053%=      5-min Rain = 0
KSVS 091300Z 22012G17KT 05/M04 A30 RMK A01 T00501039  RH  053%=      5-min Rain = 0
KSVS 091305Z 22013KT 05/M04 A3001 RMK A01 T00501039  RH  053%=      5-min Rain = 0
KSVS 091310Z 22012KT 05/M04 A3001 RMK A01 T00501039  RH  053%=      5-min Rain = 0
KSVS 091315Z 22013KT 05/M04 A3001 RMK A01 T00501038  RH  053%=      5-min Rain = 0
KSVS 091320Z 22011KT 05/M04 A3001 RMK A01 T00501039  RH  053%=      5-min Rain = 0
KSVS 091325Z 22011KT 05/M04 A3001 RMK A01 T00461039  RH  054%=      5-min Rain = 0
KSVS 091330Z 22012KT 04/M04 A3001 RMK A01 T00441040  RH  055%=      5-min Rain = 0
KSVS 091335Z 22012KT 05/M04 A3001 RMK A01 T00451039  RH  055%=      5-min Rain = 0
KSVS 091340Z 21012KT 05/M04 A3001 RMK A01 T00451040  RH  055%=      5-min Rain = 0
KSVS 091345Z 21011KT 04/M04 A3001 RMK A01 T00431040  RH  055%=      5-min Rain = 0
KSVS 091350Z 21012KT 05/M04 A3001 RMK A01 T00451039  RH  055%=      5-min Rain = 0
KSVS 091355Z 21012KT 05/M04 A3001 RMK A01 T00481038  RH  054%=      5-min Rain = 0
KSVS 091400Z 21012KT 05/M04 A3001 RMK A01 T00511037  RH  053%=      5-min Rain = 0
KSVS 091405Z 21011KT 05/M04 A3001 RMK A01 T00521037  RH  053%=      5-min Rain = 0
KSVS 091410Z 21010KT 05/M04 A30 RMK A01 T00511037  RH  053%=      5-min Rain = 0
KSVS 091415Z 22010KT 05/M04 A30 RMK A01 T00511037  RH  053%=      5-min Rain = 0
KSVS 091420Z 21011KT 05/M04 A30 RMK A01 T00521037  RH  053%=      5-min Rain = 0
KSVS 091425Z 21011KT 06/M04 A30 RMK A01 T00551037  RH  052%=      5-min Rain = 0
KSVS 091430Z 21011KT 06/M04 A30 RMK A01 T00581036  RH  051%=      5-min Rain = 0
KSVS 091435Z 21013KT 06/M04 A2999 RMK A01 T00631035  RH  050%=      5-min Rain = 0
KSVS 091440Z 22012KT 07/M03 A30 RMK A01 T00671034  RH  049%=      5-min Rain = 0
KSVS 091445Z 22013KT 07/M03 A30 RMK A01 T00711034  RH  048%=      5-min Rain = 0
KSVS 091450Z 21012G18KT 07/M03 A2999 RMK A01 T00741033  RH  047%=      5-min Rain = 0
KSVS 091455Z 22014KT 08/M03 A2999 RMK A01 T00761034  RH  046%=      5-min Rain = 0
KSVS 091500Z 21014G19KT 08/M03 A2999 RMK A01 T00781033  RH  046%=      5-min Rain = 0
KSVS 091505Z 22015KT 08/M03 A2999 RMK A01 T00821033  RH  045%=      5-min Rain = 0
KSVS 091510Z 22014G19KT 08/M03 A2999 RMK A01 T00841033  RH  044%=      5-min Rain = 0
KSVS 091515Z 21014KT 09/M03 A2999 RMK A01 T00881032  RH  043%=      5-min Rain = 0
KSVS 091520Z 22014G19KT 09/M03 A2999 RMK A01 T00931032  RH  042%=      5-min Rain = 0
KSVS 091525Z 22013KT 10/M03 A2999 RMK A01 T00981031  RH  041%=      5-min Rain = 0
KSVS 091530Z 22016KT 10/M03 A2999 RMK A01 T01021031  RH  040%=      5-min Rain = 0
KSVS 091535Z 22016KT 10/M03 A2999 RMK A01 T01031031  RH  039%=      5-min Rain = 0
KSVS 091540Z 23014KT 11/M03 A30 RMK A01 T01071029  RH  039%=      5-min Rain = 0
KSVS 091545Z 22015KT 11/M03 A30 RMK A01 T01091029  RH  038%=      5-min Rain = 0
KSVS 091550Z 22014KT 11/M03 A30 RMK A01 T01121028  RH  038%=      5-min Rain = 0
KSVS 091555Z 22012KT 12/M03 A2999 RMK A01 T01151027  RH  037%=      5-min Rain = 0
KSVS 091600Z 22013KT 12/M03 A2999 RMK A01 T01181027  RH  037%=      5-min Rain = 0
KSVS 091605Z 22013KT 12/M03 A2999 RMK A01 T01231026  RH  036%=      5-min Rain = 0
KSVS 091610Z 22013KT 13/M03 A2999 RMK A01 T01251026  RH  035%=      5-min Rain = 0
KSVS 091615Z 22013G18KT 13/M03 A2999 RMK A01 T01281025  RH  035%=      5-min Rain = 0
KSVS 091620Z 22013G19KT 14/M02 A30 RMK A01 T01381022  RH  033%=      5-min Rain = 0
KSVS 091625Z 22013G18KT 14/M02 A2999 RMK A01 T01441021  RH  032%=      5-min Rain = 0
KSVS 091630Z 22015G20KT 15/M02 A2999 RMK A01 T01461022  RH  032%=      5-min Rain = 0
KSVS 091635Z 21013G19KT 15/M02 A2999 RMK A01 T01531020  RH  031%=      5-min Rain = 0
KSVS 091640Z 22015KT 15/M02 A2999 RMK A01 T01541020  RH  031%=      5-min Rain = 0
KSVS 091645Z 21012G17KT 16/M02 A2998 RMK A01 T01561020  RH  030%=      5-min Rain = 0
KSVS 091650Z 22014G21KT 15/M02 A2998 RMK A01 T01531020  RH  031%=      5-min Rain = 0
KSVS 091655Z 21013G20KT 15/M02 A2998 RMK A01 T01531019  RH  031%=      5-min Rain = 0
KSVS 091700Z 21016G21KT 16/M02 A2997 RMK A01 T01601019  RH  030%=      5-min Rain = 0
KSVS 091705Z 21014G21KT 17/M02 A2997 RMK A01 T01661018  RH  029%=      5-min Rain = 0
KSVS 091710Z 21014G19KT 17/M02 A2996 RMK A01 T01661019  RH  028%=      5-min Rain = 0
KSVS 091715Z 21014G21KT 17/M02 A2996 RMK A01 T01691018  RH  028%=      5-min Rain = 0
KSVS 091720Z 21016G21KT 18/M02 A2996 RMK A01 T01791018  RH  026%=      5-min Rain = 0
KSVS 091725Z 22017G22KT 18/M02 A2996 RMK A01 T01801019  RH  026%=      5-min Rain = 0
KSVS 091730Z 22016G25KT 19/M02 A2995 RMK A01 T01861019  RH  025%=      5-min Rain = 0
KSVS 091735Z 22017G22KT 19/M02 A2995 RMK A01 T01921020  RH  024%=      5-min Rain = 0
KSVS 091740Z 22018G24KT 19/M02 A2995 RMK A01 T01931020  RH  024%=      5-min Rain = 0
KSVS 091745Z 22017G23KT 19/M02 A2995 RMK A01 T01941020  RH  024%=      5-min Rain = 0
KSVS 091750Z 23019G25KT 20/M02 A2994 RMK A01 T01961020  RH  023%=      5-min Rain = 0
KSVS 091755Z 22019G26KT 20/M02 A2994 RMK A01 T01971021  RH  023%=      5-min Rain = 0
KSVS 091800Z 23022G28KT 20/M03 A2993 RMK A01 T01951025  RH  023%=      5-min Rain = 0
KSVS 091805Z 23020G30KT 20/M03 A2993 RMK A01 T01961025  RH  023%=      5-min Rain = 0
KSVS 091810Z 22019G24KT 20/M02 A2992 RMK A01 T01991023  RH  023%=      5-min Rain = 0
KSVS 091815Z 22017G24KT 20/M02 A2992 RMK A01 T02031021  RH  022%=      5-min Rain = 0
KSVS 091820Z 23017G23KT 21/M02 A2992 RMK A01 T02081022  RH  021%=      5-min Rain = 0
KSVS 091825Z 23019G25KT 21/M02 A2991 RMK A01 T02111024  RH  021%=      5-min Rain = 0
KSVS 091830Z 23017G23KT 22/M03 A2991 RMK A01 T02161025  RH  020%=      5-min Rain = 0
KSVS 091835Z 22019G26KT 21/M03 A2991 RMK A01 T02131026  RH  020%=      5-min Rain = 0
KSVS 091840Z 23021G28KT 21/M03 A299 RMK A01 T02051027  RH  021%=      5-min Rain = 0
KSVS 091845Z 23019G24KT 21/M03 A299 RMK A01 T02081026  RH  021%=      5-min Rain = 0
KSVS 091850Z 23017G23KT 21/M03 A299 RMK A01 T02101028  RH  020%=      5-min Rain = 0
KSVS 091855Z 23019G26KT 21/M03 A2989 RMK A01 T02131027  RH  020%=      5-min Rain = 0
KSVS 091900Z 23019G25KT 21/M03 A2989 RMK A01 T02101026  RH  020%=      5-min Rain = 0
KSVS 091905Z 23020G26KT 21/M03 A2989 RMK A01 T02071027  RH  021%=      5-min Rain = 0
KSVS 091910Z 22019G25KT 22/M03 A2988 RMK A01 T02181025  RH  020%=      5-min Rain = 0
KSVS 091915Z 23019G26KT 22/M02 A2988 RMK A01 T02221024  RH  019%=      5-min Rain = 0
KSVS 091920Z 22022G27KT 22/M03 A2987 RMK A01 T02171026  RH  020%=      5-min Rain = 0
KSVS 091925Z 23020G27KT 21/M03 A2987 RMK A01 T02131028  RH  020%=      5-min Rain = 0
KSVS 091930Z 23020G25KT 22/M03 A2987 RMK A01 T02211027  RH  019%=      5-min Rain = 0
KSVS 091935Z 23020G29KT 23/M03 A2986 RMK A01 T02271029  RH  018%=      5-min Rain = 0
KSVS 091940Z 23020G29KT 23/M03 A2986 RMK A01 T02251032  RH  018%=      5-min Rain = 0
KSVS 091945Z 23020G26KT 23/M04 A2985 RMK A01 T02251035  RH  018%=      5-min Rain = 0
KSVS 091950Z 23018G25KT 23/M04 A2985 RMK A01 T02261035  RH  017%=      5-min Rain = 0
KSVS 091955Z 23020G25KT 23/M04 A2984 RMK A01 T02341037  RH  016%=      5-min Rain = 0
KSVS 092000Z 24020G25KT 24/M04 A2985 RMK A01 T02351035  RH  016%=      5-min Rain = 0
KSVS 092005Z 24019G24KT 25/M03 A2984 RMK A01 T02461031  RH  016%=      5-min Rain = 0
KSVS 092010Z 24019G25KT 24/M03 A2984 RMK A01 T02411031  RH  016%=      5-min Rain = 0
KSVS 092015Z 24019G25KT 25/M03 A2984 RMK A01 T02461029  RH  016%=      5-min Rain = 0
KSVS 092020Z 23019G24KT 25/M03 A2983 RMK A01 T02481028  RH  016%=      5-min Rain = 0
KSVS 092025Z 23017G24KT 25/M03 A2983 RMK A01 T02471028  RH  016%=      5-min Rain = 0
KSVS 092030Z 23019G26KT 25/M03 A2983 RMK A01 T02511027  RH  016%=      5-min Rain = 0
KSVS 092035Z 24020G26KT 25/M02 A2983 RMK A01 T02521023  RH  016%=      5-min Rain = 0
KSVS 092040Z 24019G26KT 26/M02 A2983 RMK A01 T02551019  RH  016%=      5-min Rain = 0
KSVS 092045Z 24019G25KT 25/M02 A2983 RMK A01 T02541018  RH  017%=      5-min Rain = 0
KSVS 092050Z 24019G24KT 26/M02 A2983 RMK A01 T02561018  RH  016%=      5-min Rain = 0
KSVS 092055Z 24019G27KT 26/M02 A2983 RMK A01 T02551018  RH  017%=      5-min Rain = 0
KSVS 092100Z 24019G25KT 26/M02 A2983 RMK A01 T02571018  RH  016%=      5-min Rain = 0
KSVS 092105Z 24018G25KT 26/M02 A2983 RMK A01 T02581016  RH  017%=      5-min Rain = 0
KSVS 092110Z 24018G23KT 26/M01 A2983 RMK A01 T02571013  RH  017%=      5-min Rain = 0
KSVS 092115Z 25021G27KT 25/M01 A2983 RMK A01 T02541008  RH  018%=      5-min Rain = 0
KSVS 092120Z 24018G26KT 26/M01 A2983 RMK A01 T02561007  RH  018%=      5-min Rain = 0
KSVS 092125Z 24021G26KT 25/M01 A2983 RMK A01 T02541009  RH  018%=      5-min Rain = 0
KSVS 092130Z 24020G25KT 25/M01 A2983 RMK A01 T02541010  RH  018%=      5-min Rain = 0
KSVS 092135Z 24020G26KT 25/M01 A2983 RMK A01 T02541012  RH  017%=      5-min Rain = 0
KSVS 092140Z 24018G24KT 26/M01 A2983 RMK A01 T02561013  RH  017%=      5-min Rain = 0
KSVS 092145Z 24019G25KT 26/M01 A2983 RMK A01 T02551013  RH  017%=      5-min Rain = 0
KSVS 092150Z 24017G22KT 26/M01 A2983 RMK A01 T02551014  RH  017%=      5-min Rain = 0
KSVS 092155Z 24019G25KT 26/M01 A2983 RMK A01 T02551013  RH  017%=      5-min Rain = 0
KSVS 092200Z 24017G25KT 26/M01 A2983 RMK A01 T02551013  RH  017%=      5-min Rain = 0
KSVS 092205Z 25021G26KT 25/M02 A2983 RMK A01 T02521015  RH  017%=      5-min Rain = 0
KSVS 092210Z 24020G26KT 25/M02 A2984 RMK A01 T02511018  RH  017%=      5-min Rain = 0
KSVS 092215Z 25019KT 25/M02 A2984 RMK A01 T02511020  RH  017%=      5-min Rain = 0
KSVS 092220Z 24019KT 25/M02 A2984 RMK A01 T02491019  RH  017%=      5-min Rain = 0
KSVS 092225Z 24018G23KT 25/M02 A2984 RMK A01 T02481023  RH  017%=      5-min Rain = 0
KSVS 092230Z 24019G24KT 25/M03 A2984 RMK A01 T02451031  RH  016%=      5-min Rain = 0
KSVS 092235Z 24016G21KT 24/M03 A2984 RMK A01 T02401032  RH  016%=      5-min Rain = 0
KSVS 092240Z 24015G21KT 23/M03 A2984 RMK A01 T02331034  RH  017%=      5-min Rain = 0
KSVS 092245Z 24013KT 23/M03 A2984 RMK A01 T02281034  RH  017%=      5-min Rain = 0
KSVS 092250Z 24012KT 22/M03 A2984 RMK A01 T02221033  RH  018%=      5-min Rain = 0
KSVS 092255Z 24011KT 22/M03 A2984 RMK A01 T02221033  RH  018%=      5-min Rain = 0
KSVS 092300Z 24011KT 23/M03 A2984 RMK A01 T02251032  RH  018%=      5-min Rain = 0
KSVS 092305Z 24011KT 22/M03 A2984 RMK A01 T02241033  RH  018%=      5-min Rain = 0
KSVS 092310Z 24011KT 23/M03 A2984 RMK A01 T02261034  RH  018%=      5-min Rain = 0
KSVS 092315Z 23010G15KT 22/M03 A2984 RMK A01 T02241033  RH  018%=      5-min Rain = 0
KSVS 092320Z 23011KT 22/M03 A2984 RMK A01 T02211032  RH  018%=      5-min Rain = 0
KSVS 092325Z 24010KT 22/M03 A2984 RMK A01 T02161032  RH  019%=      5-min Rain = 0
KSVS 092330Z 24009KT 21/M03 A2984 RMK A01 T02111032  RH  020%=      5-min Rain = 0
KSVS 092335Z 23009KT 21/M03 A2984 RMK A01 T02051032  RH  020%=      5-min Rain = 0
KSVS 092340Z 24011KT 20/M03 A2984 RMK A01 T02001031  RH  021%=      5-min Rain = 0
KSVS 092345Z 24011KT 20/M03 A2984 RMK A01 T01961030  RH  022%=      5-min Rain = 0
KSVS 092350Z 23010KT 19/M03 A2984 RMK A01 T01871030  RH  023%=      5-min Rain = 0
KSVS 092355Z 23010KT 18/M03 A2984 RMK A01 T01781032  RH  024%=      5-min Rain = 0
KSVS 100000Z 24010KT 17/M03 A2985 RMK A01 T01681033  RH  025%=      5-min Rain = 0
KSVS 100005Z 24010KT 16/M03 A2985 RMK A01 T01561034  RH  027%=      5-min Rain = 0
KSVS 100010Z 24009KT 15/M04 A2985 RMK A01 T01491035  RH  028%=      5-min Rain = 0
KSVS 100015Z 24009KT 14/M04 A2985 RMK A01 T01431036  RH  029%=      5-min Rain = 0
KSVS 100020Z 24008KT 14/M04 A2985 RMK A01 T01381035  RH  030%=      5-min Rain = 0
KSVS 100025Z 23008KT 14/M03 A2985 RMK A01 T01361034  RH  031%=      5-min Rain = 0
KSVS 100030Z 23010KT 13/M04 A2985 RMK A01 T01311036  RH  031%=      5-min Rain = 0
KSVS 100035Z 22011KT 13/M04 A2985 RMK A01 T01281036  RH  032%=      5-min Rain = 0
KSVS 100040Z 23011KT 14/M03 A2985 RMK A01 T01401031  RH  031%=      5-min Rain = 0
KSVS 100045Z 23011KT 15/M03 A2985 RMK A01 T01501030  RH  029%=      5-min Rain = 0
KSVS 100050Z 23012KT 15/M03 A2985 RMK A01 T01511030  RH  029%=      5-min Rain = 0
KSVS 100055Z 23012KT 15/M03 A2985 RMK A01 T01511030  RH  029%=      5-min Rain = 0
KSVS 100100Z 23011KT 15/M03 A2985 RMK A01 T01481032  RH  029%=      5-min Rain = 0
KSVS 100105Z 23010KT 14/M03 A2985 RMK A01 T01371034  RH  031%=      5-min Rain = 0
KSVS 100110Z 24009KT 12/M04 A2985 RMK A01 T01231036  RH  033%=      5-min Rain = 0
KSVS 100115Z 24010KT 11/M04 A2985 RMK A01 T01121038  RH  035%=      5-min Rain = 0
KSVS 100120Z 24011KT 11/M04 A2985 RMK A01 T01071037  RH  036%=      5-min Rain = 0
KSVS 100125Z 24011KT 12/M03 A2985 RMK A01 T01161034  RH  035%=      5-min Rain = 0
KSVS 100130Z 24011KT 12/M03 A2985 RMK A01 T01181034  RH  035%=      5-min Rain = 0
KSVS 100135Z 24010KT 12/M03 A2985 RMK A01 T01241033  RH  034%=      5-min Rain = 0
KSVS 100140Z 23011KT 12/M03 A2985 RMK A01 T01211033  RH  034%=      5-min Rain = 0
KSVS 100145Z 22011KT 12/M03 A2986 RMK A01 T01241031  RH  034%=      5-min Rain = 0
KSVS 100150Z 22009KT 12/M03 A2985 RMK A01 T01241031  RH  034%=      5-min Rain = 0
KSVS 100155Z 22009KT 12/M03 A2985 RMK A01 T01181032  RH  035%=      5-min Rain = 0
KSVS 100200Z 22010KT 11/M03 A2985 RMK A01 T01111033  RH  037%=      5-min Rain = 0
KSVS 100205Z 22010KT 11/M03 A2985 RMK A01 T01081034  RH  037%=      5-min Rain = 0
KSVS 100210Z 22010KT 11/M03 A2985 RMK A01 T01111032  RH  037%=      5-min Rain = 0
KSVS 100215Z 22010KT 11/M03 A2985 RMK A01 T01141034  RH  036%=      5-min Rain = 0
KSVS 100220Z 22011KT 12/M04 A2985 RMK A01 T01161037  RH  035%=      5-min Rain = 0
KSVS 100225Z 22011KT 12/M04 A2985 RMK A01 T01181039  RH  034%=      5-min Rain = 0
KSVS 100230Z 22010KT 12/M04 A2985 RMK A01 T01161040  RH  034%=      5-min Rain = 0
KSVS 100235Z 22011KT 12/M04 A2985 RMK A01 T01161041  RH  033%=      5-min Rain = 0
KSVS 100240Z 22011KT 12/M04 A2985 RMK A01 T01201041  RH  033%=      5-min Rain = 0
KSVS 100245Z 22010KT 12/M04 A2985 RMK A01 T01211041  RH  032%=      5-min Rain = 0
KSVS 100250Z 22011KT 12/M04 A2985 RMK A01 T01231041  RH  032%=      5-min Rain = 0
KSVS 100255Z 21010KT 12/M04 A2984 RMK A01 T01231041  RH  032%=      5-min Rain = 0
KSVS 100300Z 21011KT 12/M04 A2984 RMK A01 T01221040  RH  032%=      5-min Rain = 0
KSVS 100305Z 21011KT 12/M04 A2984 RMK A01 T01191040  RH  033%=      5-min Rain = 0
KSVS 100310Z 21011KT 12/M04 A2984 RMK A01 T01171039  RH  034%=      5-min Rain = 0
KSVS 100315Z 21011KT 11/M04 A2984 RMK A01 T01141038  RH  034%=      5-min Rain = 0
KSVS 100320Z 22010KT 11/M04 A2984 RMK A01 T01141036  RH  035%=      5-min Rain = 0
KSVS 100325Z 22012KT 12/M03 A2984 RMK A01 T01181033  RH  035%=      5-min Rain = 0
KSVS 100330Z 22012KT 12/M03 A2984 RMK A01 T01221032  RH  034%=      5-min Rain = 0
KSVS 100335Z 22012KT 12/M03 A2984 RMK A01 T01231031  RH  034%=      5-min Rain = 0
KSVS 100340Z 22012KT 12/M03 A2984 RMK A01 T01211031  RH  035%=      5-min Rain = 0
KSVS 100345Z 22012KT 12/M03 A2984 RMK A01 T01221029  RH  035%=      5-min Rain = 0
KSVS 100350Z 22012KT 12/M03 A2983 RMK A01 T01221027  RH  036%=      5-min Rain = 0
KSVS 100355Z 22012KT 12/M03 A2983 RMK A01 T01211026  RH  036%=      5-min Rain = 0
KSVS 100400Z 22012KT 12/M02 A2984 RMK A01 T01231024  RH  036%=      5-min Rain = 0
KSVS 100405Z 22013KT 13/M02 A2984 RMK A01 T01251023  RH  036%=      5-min Rain = 0
KSVS 100410Z 22013KT 13/M02 A2984 RMK A01 T01261023  RH  036%=      5-min Rain = 0
KSVS 100415Z 23013KT 13/M02 A2983 RMK A01 T01271022  RH  036%=      5-min Rain = 0
KSVS 100420Z 22013KT 13/M02 A2983 RMK A01 T01261021  RH  036%=      5-min Rain = 0
KSVS 100425Z 22014KT 13/M02 A2983 RMK A01 T01281020  RH  036%=      5-min Rain = 0
KSVS 100430Z 22013KT 13/M02 A2983 RMK A01 T01271020  RH  036%=      5-min Rain = 0
KSVS 100435Z 23013KT 12/M02 A2983 RMK A01 T01241020  RH  037%=      5-min Rain = 0
KSVS 100440Z 23012KT 12/M02 A2983 RMK A01 T01201022  RH  038%=      5-min Rain = 0
KSVS 100445Z 23013KT 12/M02 A2984 RMK A01 T01171022  RH  038%=      5-min Rain = 0
KSVS 100450Z 23014KT 12/M02 A2984 RMK A01 T01151023  RH  038%=      5-min Rain = 0
KSVS 100455Z 23013G18KT 12/M02 A2984 RMK A01 T01171022  RH  038%=      5-min Rain = 0
KSVS 100500Z 24013G18KT 12/M02 A2984 RMK A01 T01161021  RH  039%=      5-min Rain = 0
KSVS 100505Z 24013KT 11/M02 A2984 RMK A01 T01141023  RH  039%=      5-min Rain = 0
KSVS 100510Z 24013KT 11/M02 A2984 RMK A01 T01111024  RH  039%=      5-min Rain = 0
KSVS 100515Z 24013KT 11/M03 A2984 RMK A01 T01081025  RH  040%=      5-min Rain = 0
KSVS 100520Z 24012KT 11/M03 A2984 RMK A01 T01071025  RH  040%=      5-min Rain = 0
KSVS 100525Z 24012KT 11/M02 A2983 RMK A01 T01061024  RH  040%=      5-min Rain = 0
KSVS 100530Z 24013KT 11/M02 A2983 RMK A01 T01051023  RH  041%=      5-min Rain = 0
KSVS 100535Z 24013KT 11/M02 A2983 RMK A01 T01051023  RH  041%=      5-min Rain = 0
KSVS 100540Z 23013KT 10/M02 A2983 RMK A01 T01041022  RH  042%=      5-min Rain = 0
KSVS 100545Z 23013KT 11/M02 A2983 RMK A01 T01061021  RH  042%=      5-min Rain = 0
KSVS 100550Z 24013KT 11/M02 A2983 RMK A01 T01071020  RH  041%=      5-min Rain = 0
KSVS 100555Z 23012KT 11/M02 A2983 RMK A01 T01081019  RH  042%=      5-min Rain = 0

Page generated in 0.0205 seconds.